createdAt,value
2022-07-29T00:01:44.684Z,8.40
2022-07-29T00:04:14.724Z,7.80
2022-07-29T00:06:44.352Z,8.00
2022-07-29T00:09:18.265Z,8.40
2022-07-29T00:11:47.490Z,5.90
2022-07-29T00:14:17.090Z,8.60
2022-07-29T00:16:46.605Z,6.90
2022-07-29T00:19:15.826Z,6.20
2022-07-29T00:21:45.225Z,5.70
2022-07-29T00:24:14.634Z,8.80
2022-07-29T00:26:44.027Z,8.30
2022-07-29T00:32:02.558Z,5.70
2022-07-29T00:35:04.281Z,5.90
2022-07-29T00:37:33.471Z,5.60
2022-07-29T00:40:02.849Z,8.80
2022-07-29T00:42:32.037Z,6.60
2022-07-29T00:45:01.248Z,10.00
2022-07-29T00:47:30.635Z,7.70
2022-07-29T00:50:00.151Z,5.80
2022-07-29T00:52:29.548Z,5.00
2022-07-29T00:54:59.245Z,6.40
2022-07-29T00:57:28.552Z,4.70
2022-07-29T00:59:57.703Z,5.90
2022-07-29T01:02:27.682Z,5.10
2022-07-29T01:04:58.124Z,6.30
2022-07-29T01:07:28.896Z,7.40
2022-07-29T01:09:59.627Z,6.30
2022-07-29T01:12:32.492Z,6.70
2022-07-29T01:15:03.057Z,7.50
2022-07-29T01:17:37.519Z,7.60
2022-07-29T01:20:15.237Z,5.40
2022-07-29T01:23:14.675Z,5.90
2022-07-29T01:26:22.328Z,6.40
2022-07-29T01:29:08.175Z,7.20
2022-07-29T01:31:59.465Z,8.90
2022-07-29T01:34:37.175Z,6.40
2022-07-29T01:37:16.157Z,6.50
2022-07-29T01:39:47.356Z,8.70
2022-07-29T01:42:21.526Z,4.60
2022-07-29T01:44:57.309Z,6.70
2022-07-29T01:47:36.415Z,7.30
2022-07-29T01:50:11.825Z,5.70
2022-07-29T01:52:46.631Z,8.30
2022-07-29T01:55:19.642Z,5.20
2022-07-29T01:57:51.491Z,9.10
2022-07-29T02:00:21.864Z,7.20
2022-07-29T02:02:54.118Z,6.70
2022-07-29T02:05:25.781Z,6.00
2022-07-29T02:07:57.140Z,7.10
2022-07-29T02:10:29.934Z,7.20
2022-07-29T02:13:00.673Z,7.40
2022-07-29T02:15:33.504Z,9.00
2022-07-29T02:18:07.904Z,8.20
2022-07-29T02:20:37.753Z,6.10
2022-07-29T02:23:08.331Z,5.30
2022-07-29T02:25:38.758Z,6.60
2022-07-29T02:28:10.167Z,6.00
2022-07-29T02:30:43.333Z,5.30
2022-07-29T02:33:17.174Z,5.60
2022-07-29T02:35:48.645Z,6.00
2022-07-29T02:38:37.738Z,6.80
2022-07-29T02:41:12.200Z,7.80
2022-07-29T02:43:42.922Z,8.40
2022-07-29T02:46:28.979Z,7.50
2022-07-29T02:49:05.632Z,7.00
2022-07-29T02:51:50.764Z,6.60
2022-07-29T02:56:56.187Z,6.00
2022-07-29T02:59:29.145Z,5.20
2022-07-29T03:02:01.019Z,7.70
2022-07-29T03:04:32.351Z,5.60
2022-07-29T03:07:02.555Z,6.80
2022-07-29T03:09:33.111Z,8.10
2022-07-29T03:12:05.554Z,5.10
2022-07-29T03:14:35.088Z,6.60
2022-07-29T03:17:05.524Z,6.70
2022-07-29T03:19:35.630Z,7.10
2022-07-29T03:22:05.152Z,7.80
2022-07-29T03:24:37.326Z,6.90
2022-07-29T03:27:07.431Z,7.30
2022-07-29T03:29:36.752Z,5.60
2022-07-29T03:32:25.349Z,6.70
2022-07-29T03:35:16.617Z,6.50
2022-07-29T03:38:04.191Z,5.70
2022-07-29T03:40:57.465Z,5.50
2022-07-29T03:43:49.520Z,6.80
2022-07-29T03:46:37.695Z,5.50
2022-07-29T03:49:26.147Z,6.10
2022-07-29T03:52:14.551Z,6.60
2022-07-29T03:55:01.434Z,4.00
2022-07-29T03:57:51.647Z,5.00
2022-07-29T04:00:37.745Z,7.70
2022-07-29T04:03:23.783Z,10.30
2022-07-29T04:06:06.571Z,8.80
2022-07-29T04:08:35.861Z,7.90
2022-07-29T04:11:06.170Z,6.50
2022-07-29T04:13:35.420Z,8.80
2022-07-29T04:16:04.833Z,4.80
2022-07-29T04:18:34.146Z,5.70
2022-07-29T04:21:04.784Z,6.20
2022-07-29T04:23:34.126Z,6.40
2022-07-29T04:26:03.471Z,3.60
2022-07-29T04:28:32.720Z,4.80
2022-07-29T04:31:02.675Z,4.50
2022-07-29T04:33:32.120Z,8.90
2022-07-29T04:36:01.285Z,5.70
2022-07-29T04:38:30.592Z,5.10
2022-07-29T04:40:59.927Z,4.80
2022-07-29T04:43:29.648Z,5.50
2022-07-29T04:46:07.816Z,5.10
2022-07-29T04:48:37.488Z,6.10
2022-07-29T04:51:06.773Z,6.80
2022-07-29T04:53:36.002Z,5.80
2022-07-29T04:56:06.333Z,6.10
2022-07-29T04:58:36.753Z,5.10
2022-07-29T05:01:06.960Z,6.20
2022-07-29T05:03:36.201Z,6.00
2022-07-29T05:06:05.514Z,6.60
2022-07-29T05:08:34.749Z,6.30
2022-07-29T05:11:12.095Z,6.40
2022-07-29T05:13:45.285Z,12.20
2022-07-29T05:16:15.863Z,8.30
2022-07-29T05:18:45.508Z,7.00
2022-07-29T05:21:14.808Z,8.40
2022-07-29T05:23:44.897Z,6.50
2022-07-29T05:26:14.032Z,7.00
2022-07-29T05:28:43.347Z,5.90
2022-07-29T05:31:12.766Z,5.50
2022-07-29T05:33:42.162Z,4.70
2022-07-29T05:36:11.370Z,7.90
2022-07-29T05:38:40.722Z,5.20
2022-07-29T05:41:09.948Z,3.90
2022-07-29T05:43:39.177Z,3.60
2022-07-29T05:46:08.967Z,4.10
2022-07-29T05:48:40.259Z,4.50
2022-07-29T05:51:09.609Z,6.20
2022-07-29T05:53:39.001Z,3.80
2022-07-29T05:56:09.192Z,6.30
2022-07-29T05:58:38.548Z,4.20
2022-07-29T06:01:07.971Z,3.80
2022-07-29T06:03:39.022Z,4.60
2022-07-29T06:06:08.656Z,5.30
2022-07-29T06:08:38.353Z,6.20
2022-07-29T06:11:09.215Z,4.30
2022-07-29T06:13:38.726Z,3.80
2022-07-29T06:16:08.643Z,3.90
2022-07-29T06:18:38.123Z,5.70
2022-07-29T06:21:11.202Z,5.00
2022-07-29T06:23:41.455Z,3.90
2022-07-29T06:26:10.918Z,3.40
2022-07-29T06:28:41.075Z,3.10
2022-07-29T06:31:10.402Z,3.30
2022-07-29T06:33:39.967Z,4.10
2022-07-29T06:36:10.664Z,5.40
2022-07-29T06:38:49.523Z,4.00
2022-07-29T06:41:20.814Z,2.60
2022-07-29T06:43:54.609Z,2.70
2022-07-29T06:46:24.860Z,4.90
2022-07-29T06:48:56.658Z,4.60
2022-07-29T06:51:26.265Z,4.00
2022-07-29T06:53:59.958Z,2.60
2022-07-29T06:56:39.380Z,5.30
2022-07-29T06:59:10.792Z,3.90
2022-07-29T07:01:41.620Z,4.60
2022-07-29T07:04:12.378Z,5.00
2022-07-29T07:06:41.981Z,3.50
2022-07-29T07:09:11.329Z,3.90
2022-07-29T07:11:41.053Z,2.50
2022-07-29T07:14:10.471Z,4.60
2022-07-29T07:16:39.949Z,3.70
2022-07-29T07:19:09.455Z,2.00
2022-07-29T07:21:38.755Z,2.70
2022-07-29T07:24:09.349Z,3.90
2022-07-29T07:26:40.437Z,3.50
2022-07-29T07:29:09.782Z,3.90
2022-07-29T07:31:39.964Z,4.20
2022-07-29T07:34:09.405Z,2.90
2022-07-29T07:36:38.890Z,3.40
2022-07-29T07:39:08.192Z,3.00
2022-07-29T07:41:37.815Z,3.00
2022-07-29T07:44:07.723Z,3.00
2022-07-29T07:46:40.150Z,3.80
2022-07-29T07:49:11.713Z,3.90
2022-07-29T07:51:41.175Z,3.00
2022-07-29T07:54:10.992Z,2.60
2022-07-29T07:56:41.049Z,2.70
2022-07-29T07:59:10.312Z,3.90
2022-07-29T08:01:54.963Z,5.50
2022-07-29T08:06:59.277Z,2.50
2022-07-29T08:09:30.626Z,2.70
2022-07-29T08:12:03.186Z,2.90
2022-07-29T08:14:33.342Z,3.00
2022-07-29T08:17:02.780Z,3.20
2022-07-29T08:19:32.177Z,1.60
2022-07-29T08:22:02.952Z,2.10
2022-07-29T08:24:44.039Z,3.20
2022-07-29T08:27:40.800Z,3.50
2022-07-29T08:30:03.389Z,3.60
2022-07-29T08:32:53.055Z,2.60
2022-07-29T08:35:24.133Z,3.20
2022-07-29T08:37:53.947Z,2.30
2022-07-29T08:40:32.117Z,1.90
2022-07-29T08:43:07.405Z,2.60
2022-07-29T08:45:47.352Z,4.80
2022-07-29T08:48:18.673Z,3.40
2022-07-29T08:50:49.095Z,3.10
2022-07-29T08:53:19.833Z,3.50
2022-07-29T08:55:51.270Z,4.70
2022-07-29T08:58:23.229Z,2.30
2022-07-29T09:00:56.182Z,3.70
2022-07-29T09:03:31.099Z,3.80
2022-07-29T09:06:00.789Z,3.00
2022-07-29T09:08:31.982Z,6.60
2022-07-29T09:11:03.835Z,2.10
2022-07-29T09:13:34.120Z,3.10
2022-07-29T09:16:09.109Z,2.70
2022-07-29T09:18:40.413Z,5.70
2022-07-29T09:21:34.443Z,2.60
2022-07-29T09:24:10.467Z,2.40
2022-07-29T09:26:43.251Z,3.90
2022-07-29T09:29:14.079Z,2.40
2022-07-29T09:31:45.584Z,6.60
2022-07-29T09:34:16.863Z,2.90
2022-07-29T09:36:47.741Z,2.10
2022-07-29T09:39:27.661Z,2.20
2022-07-29T09:41:58.847Z,2.60
2022-07-29T09:44:41.603Z,3.20
2022-07-29T09:47:11.329Z,2.20
2022-07-29T09:49:55.187Z,2.20
2022-07-29T09:52:24.655Z,3.70
2022-07-29T09:54:54.771Z,5.10
2022-07-29T09:57:31.136Z,2.80
2022-07-29T10:00:02.624Z,2.70
2022-07-29T10:02:34.310Z,3.60
2022-07-29T10:05:05.394Z,1.80
2022-07-29T10:07:50.571Z,3.90
2022-07-29T10:10:24.728Z,2.40
2022-07-29T10:13:01.853Z,2.40
2022-07-29T10:15:38.039Z,2.10
2022-07-29T10:18:09.430Z,6.20
2022-07-29T10:20:39.207Z,3.00
2022-07-29T10:23:10.238Z,3.50
2022-07-29T10:25:39.529Z,2.40
2022-07-29T10:28:13.195Z,2.50
2022-07-29T10:30:46.900Z,4.20
2022-07-29T10:33:37.644Z,2.30
2022-07-29T10:36:24.209Z,1.90
2022-07-29T10:39:03.304Z,3.50
2022-07-29T10:41:57.886Z,5.00
2022-07-29T10:44:28.780Z,2.40
2022-07-29T10:46:59.188Z,3.60
2022-07-29T10:49:30.955Z,3.90
2022-07-29T10:52:06.697Z,2.30
2022-07-29T10:54:46.979Z,1.70
2022-07-29T10:57:53.751Z,2.50
2022-07-29T11:00:32.936Z,7.00
2022-07-29T11:03:04.534Z,2.40
2022-07-29T11:05:59.738Z,2.60
2022-07-29T11:08:31.563Z,1.70
2022-07-29T11:11:37.392Z,1.60
2022-07-29T11:14:10.464Z,3.20
2022-07-29T11:17:06.014Z,2.80
2022-07-29T11:19:37.026Z,1.70
2022-07-29T11:22:12.117Z,5.50
2022-07-29T11:24:50.145Z,3.50
2022-07-29T11:27:22.913Z,2.40
2022-07-29T11:29:58.680Z,1.90
2022-07-29T11:32:39.603Z,3.60
2022-07-29T11:35:19.234Z,3.20
2022-07-29T11:38:08.884Z,2.50
2022-07-29T11:40:42.632Z,4.40
2022-07-29T11:43:32.162Z,3.20
2022-07-29T11:46:04.898Z,3.50
2022-07-29T11:48:34.788Z,3.10
2022-07-29T11:51:12.150Z,2.90
2022-07-29T11:53:48.293Z,1.80
2022-07-29T11:56:25.560Z,3.50
2022-07-29T11:59:05.992Z,3.20
2022-07-29T12:01:39.486Z,3.10
2022-07-29T12:04:09.541Z,3.60
2022-07-29T12:06:41.028Z,4.40
2022-07-29T12:09:14.664Z,3.60
2022-07-29T12:11:47.409Z,3.60
2022-07-29T12:14:31.574Z,2.00
2022-07-29T12:17:02.077Z,2.10
2022-07-29T12:19:43.152Z,2.00
2022-07-29T12:22:14.324Z,2.90
2022-07-29T12:24:47.194Z,3.70
2022-07-29T12:27:29.561Z,3.40
2022-07-29T12:30:03.721Z,3.10
2022-07-29T12:32:37.906Z,2.70
2022-07-29T12:37:41.018Z,4.90
2022-07-29T12:40:17.376Z,2.00
2022-07-29T12:43:10.673Z,2.50
2022-07-29T12:45:40.919Z,2.70
2022-07-29T12:48:10.866Z,4.20
2022-07-29T12:50:55.456Z,2.60
2022-07-29T12:53:25.359Z,3.10
2022-07-29T12:55:56.707Z,5.30
2022-07-29T12:58:50.996Z,2.30
2022-07-29T13:01:21.965Z,4.30
2022-07-29T13:03:57.583Z,3.70
2022-07-29T13:06:39.490Z,3.50
2022-07-29T13:09:14.112Z,2.80
2022-07-29T13:11:48.405Z,4.30
2022-07-29T13:14:34.583Z,6.00
2022-07-29T13:17:09.744Z,4.30
2022-07-29T13:19:41.728Z,2.20
2022-07-29T13:22:11.609Z,2.00
2022-07-29T13:24:56.152Z,1.80
2022-07-29T13:29:57.285Z,3.00
2022-07-29T13:32:28.715Z,4.60
2022-07-29T13:34:59.397Z,2.90
2022-07-29T13:37:30.363Z,6.00
2022-07-29T13:40:01.074Z,3.00
2022-07-29T13:42:30.548Z,1.40
2022-07-29T13:44:59.776Z,2.80
2022-07-29T13:47:32.639Z,1.80
2022-07-29T13:50:02.633Z,3.70
2022-07-29T13:52:33.167Z,2.70
2022-07-29T13:55:03.081Z,4.00
2022-07-29T13:57:32.718Z,3.00
2022-07-29T14:00:02.179Z,2.00
2022-07-29T14:02:31.562Z,2.80
2022-07-29T14:05:06.194Z,2.90
2022-07-29T14:07:37.530Z,2.40
2022-07-29T14:10:08.769Z,4.00
2022-07-29T14:12:38.198Z,4.10
2022-07-29T14:15:09.633Z,2.40
2022-07-29T14:17:38.890Z,6.50
2022-07-29T14:20:11.544Z,5.20
2022-07-29T14:22:42.542Z,2.40
2022-07-29T14:25:14.853Z,3.20
2022-07-29T14:27:44.922Z,2.50
2022-07-29T14:30:15.164Z,2.30
2022-07-29T14:32:44.491Z,3.80
2022-07-29T14:35:13.750Z,3.90
2022-07-29T14:37:43.055Z,2.10
2022-07-29T14:40:13.731Z,3.00
2022-07-29T14:42:43.070Z,2.90
2022-07-29T14:45:12.611Z,3.40
2022-07-29T14:47:42.115Z,3.20
2022-07-29T14:50:14.591Z,1.90
2022-07-29T14:52:44.340Z,3.80
2022-07-29T14:55:16.685Z,2.50
2022-07-29T14:57:50.686Z,3.40
2022-07-29T15:00:21.456Z,2.20
2022-07-29T15:03:01.803Z,2.80
2022-07-29T15:05:32.723Z,3.10
2022-07-29T15:08:02.157Z,6.00
2022-07-29T15:10:31.324Z,4.40
2022-07-29T15:13:00.683Z,2.50
2022-07-29T15:15:33.987Z,3.00
2022-07-29T15:18:30.266Z,2.70
2022-07-29T15:21:26.131Z,3.20
2022-07-29T15:24:25.654Z,3.60
2022-07-29T15:27:22.694Z,3.00
2022-07-29T15:30:27.891Z,1.80
2022-07-29T15:33:27.142Z,3.00
2022-07-29T15:36:50.806Z,5.20
2022-07-29T15:39:37.065Z,3.10
2022-07-29T15:42:33.124Z,6.40
2022-07-29T15:45:32.555Z,1.90
2022-07-29T15:48:29.172Z,2.80
2022-07-29T15:51:26.574Z,2.50
2022-07-29T15:54:20.889Z,2.30
2022-07-29T15:57:16.166Z,2.00
2022-07-29T16:00:15.394Z,1.90
2022-07-29T16:03:07.122Z,3.80
2022-07-29T16:05:58.977Z,3.00
2022-07-29T16:09:07.861Z,4.60
2022-07-29T16:12:01.405Z,3.10
2022-07-29T16:14:57.894Z,2.90
2022-07-29T16:17:50.230Z,2.90
2022-07-29T16:20:39.099Z,2.60
2022-07-29T16:23:28.380Z,5.80
2022-07-29T16:26:00.067Z,2.00
2022-07-29T16:28:31.028Z,2.40
2022-07-29T16:31:01.901Z,2.60
2022-07-29T16:33:55.067Z,2.90
2022-07-29T16:36:22.555Z,3.70
2022-07-29T16:38:53.237Z,4.90
2022-07-29T16:41:22.701Z,1.50
2022-07-29T16:43:53.241Z,2.00
2022-07-29T16:46:23.335Z,2.20
2022-07-29T16:48:55.896Z,2.90
2022-07-29T16:51:27.061Z,2.60
2022-07-29T16:53:57.412Z,2.20
2022-07-29T16:56:27.016Z,2.50
2022-07-29T16:59:00.327Z,2.50
2022-07-29T17:01:30.024Z,2.00
2022-07-29T17:04:08.503Z,1.60
2022-07-29T17:06:40.351Z,2.00
2022-07-29T17:09:11.552Z,3.70
2022-07-29T17:11:53.544Z,2.50
2022-07-29T17:14:26.226Z,4.60
2022-07-29T17:17:01.337Z,2.50
2022-07-29T17:19:34.951Z,2.90
2022-07-29T17:22:18.744Z,2.90
2022-07-29T17:25:11.962Z,3.70
2022-07-29T17:28:11.330Z,2.10
2022-07-29T17:31:00.198Z,3.20
2022-07-29T17:33:59.632Z,5.00
2022-07-29T17:36:49.997Z,3.80
2022-07-29T17:39:46.951Z,3.10
2022-07-29T17:42:38.061Z,2.30
2022-07-29T17:45:48.787Z,2.70
2022-07-29T17:48:35.412Z,2.70
2022-07-29T17:51:25.739Z,2.90
2022-07-29T17:54:18.754Z,4.00
2022-07-29T17:56:49.701Z,2.70
2022-07-29T17:59:19.332Z,3.40
2022-07-29T18:01:48.824Z,5.30
2022-07-29T18:04:20.846Z,3.80
2022-07-29T18:06:50.072Z,4.30
2022-07-29T18:09:19.576Z,3.90
2022-07-29T18:11:49.065Z,3.90
2022-07-29T18:14:18.452Z,3.60
2022-07-29T18:16:47.784Z,4.50
2022-07-29T18:19:17.112Z,4.90
2022-07-29T18:21:53.986Z,4.50
2022-07-29T18:24:25.048Z,4.90
2022-07-29T18:26:54.459Z,3.80
2022-07-29T18:29:23.859Z,5.10
2022-07-29T18:31:53.334Z,5.20
2022-07-29T18:34:22.679Z,7.10
2022-07-29T18:36:52.012Z,8.30
2022-07-29T18:39:22.060Z,5.90
2022-07-29T18:41:53.113Z,5.30
2022-07-29T18:44:23.002Z,5.50
2022-07-29T18:46:52.978Z,6.00
2022-07-29T18:49:22.400Z,3.00
2022-07-29T18:51:52.595Z,6.30
2022-07-29T18:54:21.920Z,4.10
2022-07-29T18:56:51.247Z,5.30
2022-07-29T18:59:21.208Z,6.60
2022-07-29T19:01:51.016Z,4.70
2022-07-29T19:04:20.413Z,4.30
2022-07-29T19:06:49.712Z,4.10
2022-07-29T19:09:19.081Z,4.60
2022-07-29T19:11:53.044Z,3.20
2022-07-29T19:14:25.410Z,3.90
2022-07-29T19:16:55.238Z,4.10
2022-07-29T19:19:25.129Z,5.40
2022-07-29T19:21:54.721Z,5.90
2022-07-29T19:24:23.870Z,3.90
2022-07-29T19:26:53.244Z,3.70
2022-07-29T19:29:23.387Z,4.60
2022-07-29T19:31:52.800Z,3.20
2022-07-29T19:34:22.022Z,4.60
2022-07-29T19:36:51.406Z,6.50
2022-07-29T19:39:34.717Z,4.70
2022-07-29T19:42:05.283Z,5.90
2022-07-29T19:44:34.572Z,4.60
2022-07-29T19:47:03.922Z,5.20
2022-07-29T19:49:36.966Z,5.20
2022-07-29T19:52:07.694Z,6.10
2022-07-29T19:54:36.946Z,5.30
2022-07-29T19:57:06.276Z,7.50
2022-07-29T19:59:35.935Z,6.70
2022-07-29T20:02:05.638Z,8.30
2022-07-29T20:04:35.042Z,6.60
2022-07-29T20:07:04.449Z,7.60
2022-07-29T20:09:34.557Z,4.80
2022-07-29T20:12:06.260Z,7.70
2022-07-29T20:14:35.599Z,4.50
2022-07-29T20:17:08.273Z,4.50
2022-07-29T20:19:37.628Z,5.80
2022-07-29T20:22:07.344Z,7.80
2022-07-29T20:24:36.951Z,4.80
2022-07-29T20:27:06.368Z,6.50
2022-07-29T20:29:46.903Z,10.30
2022-07-29T20:32:16.389Z,6.80
2022-07-29T20:34:45.863Z,7.40
2022-07-29T20:37:16.464Z,7.60
2022-07-29T20:39:47.632Z,7.90
2022-07-29T20:42:17.443Z,5.00
2022-07-29T20:44:46.849Z,8.80
2022-07-29T20:47:16.454Z,4.60
2022-07-29T20:49:45.887Z,5.10
2022-07-29T20:52:15.397Z,5.30
2022-07-29T20:54:44.870Z,6.40
2022-07-29T20:57:14.309Z,4.10
2022-07-29T20:59:45.880Z,3.90
2022-07-29T21:02:15.384Z,6.10
2022-07-29T21:04:45.071Z,5.10
2022-07-29T21:07:14.482Z,3.70
2022-07-29T21:09:43.796Z,5.40
2022-07-29T21:12:14.854Z,3.50
2022-07-29T21:14:51.456Z,3.30
2022-07-29T21:17:22.757Z,5.90
2022-07-29T21:19:53.381Z,6.20
2022-07-29T21:22:22.806Z,3.40
2022-07-29T21:25:25.753Z,4.30
2022-07-29T21:28:44.470Z,3.80
2022-07-29T21:31:51.700Z,3.50
2022-07-29T21:34:59.116Z,5.10
2022-07-29T21:37:28.660Z,3.30
2022-07-29T21:40:45.276Z,4.60
2022-07-29T21:43:51.079Z,2.80
2022-07-29T21:46:21.144Z,3.20
2022-07-29T21:48:53.900Z,3.80
2022-07-29T21:51:23.900Z,5.30
2022-07-29T21:53:53.335Z,4.40
2022-07-29T21:56:43.298Z,3.40
2022-07-29T21:59:56.010Z,2.90
2022-07-29T22:02:54.328Z,3.40
2022-07-29T22:05:23.818Z,3.70
2022-07-29T22:07:55.924Z,5.00
2022-07-29T22:10:28.206Z,3.70
2022-07-29T22:12:59.116Z,5.60
2022-07-29T22:15:28.590Z,2.70
2022-07-29T22:17:58.308Z,6.70
2022-07-29T22:20:28.202Z,2.90
2022-07-29T22:22:57.645Z,4.20
2022-07-29T22:25:26.931Z,7.20
2022-07-29T22:27:56.123Z,3.40
2022-07-29T22:30:25.500Z,4.20
2022-07-29T22:32:54.855Z,5.50
2022-07-29T22:35:24.211Z,4.10
2022-07-29T22:37:53.971Z,5.40
2022-07-29T22:40:23.668Z,6.40
2022-07-29T22:43:00.068Z,5.60
2022-07-29T22:45:29.447Z,6.30
2022-07-29T22:47:59.483Z,5.10
2022-07-29T22:50:28.818Z,4.70
2022-07-29T22:52:58.386Z,4.90
2022-07-29T22:55:28.562Z,5.50
2022-07-29T22:57:58.577Z,4.00
2022-07-29T23:00:27.955Z,4.40
2022-07-29T23:02:57.213Z,4.40
2022-07-29T23:05:27.761Z,5.20
2022-07-29T23:07:57.474Z,3.30
2022-07-29T23:10:26.999Z,5.10
2022-07-29T23:12:56.257Z,5.70
2022-07-29T23:15:27.485Z,4.50
2022-07-29T23:17:57.051Z,3.10
2022-07-29T23:20:26.707Z,4.20
2022-07-29T23:22:56.054Z,4.00
2022-07-29T23:25:25.286Z,3.60
2022-07-29T23:27:54.816Z,4.10
2022-07-29T23:30:24.411Z,2.80
2022-07-29T23:32:54.152Z,2.20
2022-07-29T23:35:24.603Z,4.60
2022-07-29T23:37:53.840Z,2.50
2022-07-29T23:40:23.601Z,2.20
2022-07-29T23:42:52.965Z,3.50
2022-07-29T23:45:22.369Z,2.30
2022-07-29T23:48:11.938Z,4.20
2022-07-29T23:50:41.960Z,3.70
2022-07-29T23:53:12.101Z,2.80
2022-07-29T23:55:42.517Z,2.20
2022-07-29T23:58:12.342Z,2.10
